createdAt,value
2023-03-06T00:01:55.198Z,75.36
2023-03-06T00:04:22.843Z,75.43
2023-03-06T00:06:50.607Z,75.64
2023-03-06T00:09:18.278Z,75.62
2023-03-06T00:11:45.929Z,75.73
2023-03-06T00:14:13.694Z,75.80
2023-03-06T00:16:41.477Z,75.78
2023-03-06T00:19:09.224Z,76.02
2023-03-06T00:21:36.887Z,76.00
2023-03-06T00:24:04.657Z,75.66
2023-03-06T00:26:34.055Z,75.79
2023-03-06T00:29:01.710Z,76.07
2023-03-06T00:31:29.593Z,76.21
2023-03-06T00:33:57.347Z,76.34
2023-03-06T00:36:25.105Z,76.18
2023-03-06T00:38:52.870Z,76.62
2023-03-06T00:41:20.528Z,76.39
2023-03-06T00:43:48.297Z,76.24
2023-03-06T00:46:16.057Z,76.52
2023-03-06T00:48:43.716Z,76.74
2023-03-06T00:51:13.886Z,76.70
2023-03-06T00:53:41.822Z,76.79
2023-03-06T00:56:09.571Z,76.80
2023-03-06T00:58:37.948Z,77.04
2023-03-06T01:01:05.633Z,76.82
2023-03-06T01:03:33.375Z,76.93
2023-03-06T01:06:01.036Z,76.94
2023-03-06T01:08:28.898Z,77.34
2023-03-06T01:10:56.661Z,77.23
2023-03-06T01:13:24.325Z,77.41
2023-03-06T01:15:51.984Z,77.35
2023-03-06T01:18:19.747Z,77.46
2023-03-06T01:20:47.614Z,77.35
2023-03-06T01:23:15.275Z,77.51
2023-03-06T01:25:42.936Z,77.59
2023-03-06T01:28:10.699Z,77.52
2023-03-06T01:30:38.363Z,77.71
2023-03-06T01:33:06.023Z,77.59
2023-03-06T01:35:33.712Z,77.58
2023-03-06T01:38:01.552Z,77.59
2023-03-06T01:40:29.319Z,77.50
2023-03-06T01:42:56.980Z,77.17
2023-03-06T01:45:24.645Z,77.39
2023-03-06T01:47:52.304Z,77.41
2023-03-06T01:50:19.963Z,77.63
2023-03-06T01:52:47.628Z,77.73
2023-03-06T01:55:15.391Z,77.53
2023-03-06T01:57:43.163Z,77.59
2023-03-06T02:03:13.930Z,77.55
2023-03-06T02:05:41.783Z,77.49
2023-03-06T02:08:09.438Z,77.74
2023-03-06T02:10:37.069Z,77.68
2023-03-06T02:13:04.763Z,77.87
2023-03-06T02:15:32.428Z,77.89
2023-03-06T02:18:00.193Z,78.05
2023-03-06T02:20:27.952Z,78.08
2023-03-06T02:22:55.613Z,77.68
2023-03-06T02:25:23.276Z,77.97
2023-03-06T02:27:51.043Z,78.02
2023-03-06T02:30:18.706Z,78.43
2023-03-06T02:32:46.567Z,78.34
2023-03-06T02:35:14.229Z,78.40
2023-03-06T02:37:41.891Z,78.20
2023-03-06T02:40:09.551Z,78.06
2023-03-06T02:42:37.213Z,77.89
2023-03-06T02:45:05.185Z,78.05
2023-03-06T02:47:32.944Z,78.22
2023-03-06T02:50:00.609Z,78.21
2023-03-06T02:52:28.364Z,78.26
2023-03-06T02:54:56.029Z,78.46
2023-03-06T02:57:23.896Z,78.29
2023-03-06T02:59:51.673Z,78.15
2023-03-06T03:02:19.422Z,78.29
2023-03-06T03:04:47.172Z,78.16
2023-03-06T03:07:15.064Z,78.14
2023-03-06T03:09:42.824Z,78.37
2023-03-06T03:12:10.594Z,78.17
2023-03-06T03:14:38.341Z,78.13
2023-03-06T03:17:06.006Z,78.22
2023-03-06T03:19:33.769Z,77.99
2023-03-06T03:22:01.437Z,78.07
2023-03-06T03:24:29.430Z,78.10
2023-03-06T03:26:57.176Z,78.39
2023-03-06T03:29:25.148Z,78.22
2023-03-06T03:31:53.109Z,78.24
2023-03-06T03:34:20.974Z,78.22
2023-03-06T03:36:48.639Z,78.32
2023-03-06T03:39:16.400Z,78.20
2023-03-06T03:41:44.058Z,77.95
2023-03-06T03:44:11.839Z,78.21
2023-03-06T03:46:39.648Z,78.06
2023-03-06T03:49:07.454Z,78.02
2023-03-06T03:51:35.216Z,78.14
2023-03-06T03:54:02.983Z,78.11
2023-03-06T03:56:30.743Z,77.98
2023-03-06T03:58:58.407Z,77.80
2023-03-06T04:01:26.166Z,77.77
2023-03-06T04:03:53.938Z,77.86
2023-03-06T04:06:21.592Z,77.81
2023-03-06T04:08:49.356Z,77.85
2023-03-06T04:11:17.022Z,77.73
2023-03-06T04:13:44.677Z,77.89
2023-03-06T04:16:12.388Z,77.76
2023-03-06T04:18:40.205Z,77.91
2023-03-06T04:21:07.970Z,77.62
2023-03-06T04:23:35.733Z,77.47
2023-03-06T04:26:03.401Z,77.48
2023-03-06T04:28:31.158Z,77.53
2023-03-06T04:30:58.941Z,77.49
2023-03-06T04:33:26.796Z,77.49
2023-03-06T04:35:54.626Z,77.44
2023-03-06T04:38:22.425Z,77.54
2023-03-06T04:40:50.108Z,77.47
2023-03-06T04:43:18.058Z,77.60
2023-03-06T04:45:45.853Z,77.79
2023-03-06T04:48:13.590Z,77.50
2023-03-06T04:50:41.347Z,77.43
2023-03-06T04:53:09.229Z,77.36
2023-03-06T04:55:36.978Z,77.82
2023-03-06T04:58:04.639Z,77.74
2023-03-06T05:00:32.301Z,77.69
2023-03-06T05:03:00.096Z,77.56
2023-03-06T05:05:28.034Z,77.74
2023-03-06T05:07:55.793Z,77.90
2023-03-06T05:10:23.556Z,77.83
2023-03-06T05:12:51.206Z,77.63
2023-03-06T05:15:18.880Z,77.81
2023-03-06T05:17:47.773Z,78.17
2023-03-06T05:20:15.540Z,78.17
2023-03-06T05:22:43.238Z,78.28
2023-03-06T05:25:11.063Z,78.13
2023-03-06T05:27:38.821Z,77.88
2023-03-06T05:30:06.490Z,77.90
2023-03-06T05:32:35.672Z,77.92
2023-03-06T05:35:03.859Z,78.01
2023-03-06T05:37:31.723Z,77.65
2023-03-06T05:39:59.432Z,77.86
2023-03-06T05:42:28.841Z,77.93
2023-03-06T05:44:56.670Z,77.81
2023-03-06T05:47:24.420Z,78.16
2023-03-06T05:49:52.184Z,78.12
2023-03-06T05:52:19.949Z,78.19
2023-03-06T05:54:47.815Z,78.16
2023-03-06T05:57:15.433Z,78.15
2023-03-06T05:59:43.305Z,78.17
2023-03-06T06:02:11.149Z,77.98
2023-03-06T06:04:38.868Z,78.15
2023-03-06T06:07:06.528Z,78.05
2023-03-06T06:09:34.291Z,78.26
2023-03-06T06:12:01.962Z,78.25
2023-03-06T06:14:29.717Z,78.30
2023-03-06T06:16:57.483Z,78.43
2023-03-06T06:19:25.145Z,78.40
2023-03-06T06:21:53.014Z,78.61
2023-03-06T06:24:20.802Z,78.54
2023-03-06T06:26:48.541Z,78.33
2023-03-06T06:29:16.200Z,78.23
2023-03-06T06:31:43.993Z,78.23
2023-03-06T06:34:11.726Z,78.21
2023-03-06T06:36:39.387Z,78.21
2023-03-06T06:39:07.158Z,78.28
2023-03-06T06:44:22.651Z,78.26
2023-03-06T06:47:21.173Z,78.21
2023-03-06T06:49:39.688Z,78.01
2023-03-06T06:52:07.455Z,77.96
2023-03-06T06:54:35.213Z,77.91
2023-03-06T06:57:02.888Z,78.16
2023-03-06T06:59:30.633Z,77.90
2023-03-06T07:01:58.396Z,78.01
2023-03-06T07:04:26.062Z,77.98
2023-03-06T07:06:53.721Z,77.99
2023-03-06T07:09:22.609Z,77.66
2023-03-06T07:11:50.404Z,77.71
2023-03-06T07:14:18.145Z,77.57
2023-03-06T07:16:45.818Z,77.18
2023-03-06T07:19:13.565Z,77.15
2023-03-06T07:21:41.328Z,77.29
2023-03-06T07:24:09.092Z,77.33
2023-03-06T07:26:36.963Z,77.33
2023-03-06T07:29:04.722Z,77.30
2023-03-06T07:31:32.454Z,77.07
2023-03-06T07:34:01.876Z,76.84
2023-03-06T07:36:30.882Z,76.92
2023-03-06T07:38:58.546Z,76.94
2023-03-06T07:41:26.206Z,76.78
2023-03-06T07:43:53.874Z,76.77
2023-03-06T07:46:21.580Z,77.00
2023-03-06T07:48:49.302Z,76.96
2023-03-06T07:51:17.071Z,76.70
2023-03-06T07:53:45.035Z,76.71
2023-03-06T07:56:12.693Z,76.77
2023-03-06T07:58:40.457Z,76.87
2023-03-06T08:01:08.219Z,76.92
2023-03-06T08:03:35.985Z,76.87
2023-03-06T08:06:03.856Z,76.43
2023-03-06T08:08:31.613Z,76.48
2023-03-06T08:10:59.277Z,76.72
2023-03-06T08:13:26.934Z,76.73
2023-03-06T08:15:54.910Z,76.70
2023-03-06T08:18:22.564Z,76.55
2023-03-06T08:20:50.242Z,76.52
2023-03-06T08:23:18.193Z,76.58
2023-03-06T08:25:45.955Z,76.37
2023-03-06T08:28:13.617Z,76.45
2023-03-06T08:30:41.688Z,76.09
2023-03-06T08:33:09.350Z,76.33
2023-03-06T08:35:37.074Z,76.00
2023-03-06T08:38:04.880Z,76.02
2023-03-06T08:40:32.640Z,75.90
2023-03-06T08:43:00.408Z,76.01
2023-03-06T08:45:28.088Z,75.59
2023-03-06T08:47:55.829Z,75.82
2023-03-06T08:50:23.601Z,75.94
2023-03-06T08:52:51.358Z,75.86
2023-03-06T08:55:19.017Z,75.92
2023-03-06T08:57:46.782Z,75.97
2023-03-06T09:00:14.598Z,75.85
2023-03-06T09:02:42.459Z,75.99
2023-03-06T09:05:10.279Z,75.56
2023-03-06T09:07:38.144Z,75.61
2023-03-06T09:10:05.908Z,75.39
2023-03-06T09:12:47.255Z,75.19
2023-03-06T09:15:17.103Z,75.67
2023-03-06T09:17:45.052Z,75.37
2023-03-06T09:20:12.954Z,75.31
2023-03-06T09:22:42.654Z,74.91
2023-03-06T09:25:11.232Z,74.49
2023-03-06T09:27:38.999Z,74.18
2023-03-06T09:30:06.663Z,74.03
2023-03-06T09:32:34.485Z,74.39
2023-03-06T09:35:02.197Z,73.71
2023-03-06T09:37:29.853Z,73.06
2023-03-06T09:39:58.035Z,72.54
2023-03-06T09:42:25.686Z,72.24
2023-03-06T09:44:53.517Z,72.11
2023-03-06T09:47:21.314Z,71.98
2023-03-06T09:49:48.982Z,70.96
2023-03-06T09:52:17.777Z,70.71
2023-03-06T09:54:46.342Z,70.31
2023-03-06T09:57:14.127Z,69.45
2023-03-06T09:59:41.874Z,69.60
2023-03-06T10:02:09.801Z,67.89
2023-03-06T10:04:37.632Z,68.07
2023-03-06T10:07:05.366Z,67.86
2023-03-06T10:09:33.035Z,67.40
2023-03-06T10:12:00.701Z,66.83
2023-03-06T10:14:28.685Z,66.66
2023-03-06T10:16:57.248Z,65.32
2023-03-06T10:19:25.008Z,64.88
2023-03-06T10:21:52.782Z,64.09
2023-03-06T10:24:20.612Z,63.01
2023-03-06T10:26:48.422Z,64.22
2023-03-06T10:29:16.275Z,62.97
2023-03-06T10:31:44.961Z,62.86
2023-03-06T10:34:12.665Z,62.36
2023-03-06T10:36:40.489Z,63.64
2023-03-06T10:39:08.249Z,63.81
2023-03-06T10:41:36.856Z,61.35
2023-03-06T10:44:04.622Z,60.27
2023-03-06T10:46:32.422Z,60.44
2023-03-06T10:49:00.167Z,60.85
2023-03-06T10:51:27.891Z,60.47
2023-03-06T10:53:55.654Z,60.73
2023-03-06T10:56:23.418Z,59.39
2023-03-06T10:58:51.082Z,59.87
2023-03-06T11:01:18.886Z,58.81
2023-03-06T11:03:46.711Z,59.99
2023-03-06T11:06:14.576Z,61.01
2023-03-06T11:08:42.246Z,61.34
2023-03-06T11:11:09.890Z,58.61
2023-03-06T11:13:37.534Z,59.38
2023-03-06T11:16:05.358Z,59.40
2023-03-06T11:18:35.442Z,59.76
2023-03-06T11:21:03.494Z,60.46
2023-03-06T11:23:31.173Z,58.37
2023-03-06T11:25:58.938Z,56.12
2023-03-06T11:28:26.596Z,54.90
2023-03-06T11:30:54.260Z,56.81
2023-03-06T11:33:21.917Z,58.31
2023-03-06T11:35:49.538Z,57.69
2023-03-06T11:38:17.242Z,56.18
2023-03-06T11:40:44.902Z,54.24
2023-03-06T11:43:12.564Z,53.32
2023-03-06T11:45:40.226Z,53.21
2023-03-06T11:48:07.887Z,53.40
2023-03-06T11:50:35.531Z,53.15
2023-03-06T11:53:03.229Z,53.79
2023-03-06T11:55:30.973Z,54.45
2023-03-06T11:57:58.739Z,54.69
2023-03-06T12:00:26.401Z,54.58
2023-03-06T12:02:54.064Z,52.76
2023-03-06T12:05:22.809Z,53.44
2023-03-06T12:07:50.617Z,52.76
2023-03-06T12:10:18.388Z,53.58
2023-03-06T12:12:46.145Z,53.31
2023-03-06T12:15:13.809Z,53.52
2023-03-06T12:17:41.465Z,54.36
2023-03-06T12:20:10.560Z,52.88
2023-03-06T12:22:38.237Z,52.64
2023-03-06T12:25:05.995Z,52.40
2023-03-06T12:27:33.751Z,51.66
2023-03-06T12:30:01.761Z,51.06
2023-03-06T12:32:29.917Z,51.97
2023-03-06T12:34:57.554Z,51.03
2023-03-06T12:37:25.320Z,49.64
2023-03-06T12:39:52.981Z,50.33
2023-03-06T12:42:23.574Z,51.79
2023-03-06T12:44:51.498Z,51.89
2023-03-06T12:47:19.782Z,51.32
2023-03-06T12:49:48.208Z,52.40
2023-03-06T12:52:18.708Z,52.97
2023-03-06T12:54:49.193Z,52.96
2023-03-06T12:57:16.954Z,53.12
2023-03-06T12:59:44.749Z,53.44
2023-03-06T13:02:12.499Z,53.51
2023-03-06T13:04:40.253Z,53.57
2023-03-06T13:07:08.012Z,53.23
2023-03-06T13:09:35.631Z,53.67
2023-03-06T13:12:03.335Z,54.02
2023-03-06T13:14:31.032Z,52.75
2023-03-06T13:16:58.832Z,52.14
2023-03-06T13:19:26.644Z,52.61
2023-03-06T13:21:54.400Z,51.31
2023-03-06T13:24:22.484Z,51.53
2023-03-06T13:26:50.231Z,51.21
2023-03-06T13:29:17.885Z,50.17
2023-03-06T13:31:45.585Z,50.28
2023-03-06T13:34:13.317Z,50.52
2023-03-06T13:36:40.986Z,50.51
2023-03-06T13:39:08.840Z,50.64
2023-03-06T13:41:37.824Z,50.38
2023-03-06T13:44:05.612Z,50.57
2023-03-06T13:46:35.388Z,50.54
2023-03-06T13:49:03.277Z,50.90
2023-03-06T13:51:30.935Z,50.48
2023-03-06T13:53:58.595Z,50.56
2023-03-06T13:56:26.263Z,51.69
2023-03-06T13:58:54.026Z,51.46
2023-03-06T14:01:21.725Z,51.33
2023-03-06T14:03:49.630Z,51.88
2023-03-06T14:06:17.310Z,52.45
2023-03-06T14:08:44.971Z,52.58
2023-03-06T14:11:12.631Z,52.45
2023-03-06T14:13:47.105Z,52.36
2023-03-06T14:16:15.522Z,52.50
2023-03-06T14:18:43.295Z,52.81
2023-03-06T14:21:13.554Z,52.35
2023-03-06T14:23:45.273Z,52.26
2023-03-06T14:26:15.912Z,52.51
2023-03-06T14:28:43.874Z,52.80
2023-03-06T14:31:11.554Z,53.12
2023-03-06T14:33:39.209Z,53.07
2023-03-06T14:36:10.139Z,53.08
2023-03-06T14:38:37.806Z,52.78
2023-03-06T14:41:05.463Z,52.87
2023-03-06T14:43:33.332Z,52.75
2023-03-06T14:46:01.092Z,52.32
2023-03-06T14:48:28.859Z,52.16
2023-03-06T14:50:56.659Z,51.71
2023-03-06T14:53:24.491Z,52.06
2023-03-06T14:55:53.388Z,52.31
2023-03-06T14:58:21.039Z,52.13
2023-03-06T15:00:49.735Z,51.78
2023-03-06T15:03:18.020Z,51.64
2023-03-06T15:05:45.778Z,52.05
2023-03-06T15:08:13.426Z,52.59
2023-03-06T15:10:43.455Z,52.53
2023-03-06T15:13:11.626Z,53.43
2023-03-06T15:15:39.379Z,54.01
2023-03-06T15:18:07.042Z,54.03
2023-03-06T15:20:34.807Z,54.20
2023-03-06T15:23:02.669Z,54.91
2023-03-06T15:25:30.460Z,55.44
2023-03-06T15:27:58.299Z,56.11
2023-03-06T15:30:26.070Z,57.18
2023-03-06T15:32:53.828Z,57.64
2023-03-06T15:35:21.520Z,58.20
2023-03-06T15:37:49.252Z,58.70
2023-03-06T15:40:16.883Z,59.42
2023-03-06T15:42:44.591Z,60.01
2023-03-06T15:45:12.245Z,60.74
2023-03-06T15:47:39.920Z,61.35
2023-03-06T15:50:07.564Z,62.00
2023-03-06T15:52:35.231Z,62.39
2023-03-06T15:55:03.002Z,63.06
2023-03-06T15:57:30.682Z,63.44
2023-03-06T15:59:58.421Z,63.94
2023-03-06T16:02:26.218Z,63.81
2023-03-06T16:04:54.073Z,64.17
2023-03-06T16:07:21.915Z,65.08
2023-03-06T16:09:49.690Z,64.85
2023-03-06T16:12:17.754Z,64.98
2023-03-06T16:14:45.510Z,64.98
2023-03-06T16:17:13.179Z,65.44
2023-03-06T16:19:40.832Z,65.73
2023-03-06T16:22:08.805Z,65.62
2023-03-06T16:24:37.383Z,66.08
2023-03-06T16:27:05.247Z,65.65
2023-03-06T16:29:33.013Z,66.27
2023-03-06T16:32:02.040Z,66.27
2023-03-06T16:34:29.973Z,66.34
2023-03-06T16:36:57.737Z,66.84
2023-03-06T16:39:25.506Z,66.76
2023-03-06T16:41:53.371Z,67.35
2023-03-06T16:44:21.132Z,67.77
2023-03-06T16:46:48.915Z,68.35
2023-03-06T16:49:17.091Z,68.07
2023-03-06T16:51:45.353Z,68.50
2023-03-06T16:54:13.114Z,68.47
2023-03-06T16:56:40.770Z,69.19
2023-03-06T16:59:08.534Z,69.48
2023-03-06T17:01:36.377Z,69.33
2023-03-06T17:04:04.168Z,69.74
2023-03-06T17:06:31.838Z,69.91
2023-03-06T17:09:00.330Z,69.56
2023-03-06T17:11:27.953Z,69.95
2023-03-06T17:13:55.635Z,70.08
2023-03-06T17:16:23.398Z,69.98
2023-03-06T17:18:51.168Z,70.18
2023-03-06T17:21:19.262Z,70.11
2023-03-06T17:23:47.097Z,70.53
2023-03-06T17:26:14.860Z,70.54
2023-03-06T17:28:42.626Z,70.28
2023-03-06T17:31:10.601Z,70.34
2023-03-06T17:33:38.256Z,70.66
2023-03-06T17:36:05.887Z,71.37
2023-03-06T17:38:33.576Z,71.13
2023-03-06T17:41:01.243Z,70.98
2023-03-06T17:43:29.006Z,70.86
2023-03-06T17:45:56.665Z,70.97
2023-03-06T17:48:24.326Z,71.31
2023-03-06T17:50:51.988Z,71.40
2023-03-06T17:53:19.756Z,71.40
2023-03-06T17:55:47.535Z,71.10
2023-03-06T17:58:15.152Z,71.68
2023-03-06T18:00:42.939Z,71.66
2023-03-06T18:03:10.609Z,71.86
2023-03-06T18:05:39.006Z,71.67
2023-03-06T18:08:08.482Z,71.98
2023-03-06T18:10:36.249Z,71.99
2023-03-06T18:13:04.424Z,72.32
2023-03-06T18:15:32.101Z,72.25
2023-03-06T18:17:59.848Z,72.49
2023-03-06T18:20:27.716Z,72.64
2023-03-06T18:22:55.477Z,72.56
2023-03-06T18:25:23.243Z,72.68
2023-03-06T18:27:50.903Z,72.43
2023-03-06T18:30:18.667Z,72.73
2023-03-06T18:32:46.379Z,73.26
2023-03-06T18:35:14.015Z,72.95
2023-03-06T18:37:41.653Z,73.01
2023-03-06T18:40:09.414Z,72.94
2023-03-06T18:42:37.186Z,72.72
2023-03-06T18:45:04.843Z,72.67
2023-03-06T18:47:33.940Z,73.02
2023-03-06T18:50:02.928Z,72.60
2023-03-06T18:52:30.594Z,72.64
2023-03-06T18:54:58.260Z,72.76
2023-03-06T18:57:26.039Z,73.09
2023-03-06T18:59:55.454Z,73.16
2023-03-06T19:02:23.184Z,73.01
2023-03-06T19:04:50.949Z,73.00
2023-03-06T19:07:18.613Z,72.94
2023-03-06T19:09:46.376Z,72.70
2023-03-06T19:12:14.148Z,73.07
2023-03-06T19:14:41.905Z,72.70
2023-03-06T19:17:09.567Z,72.93
2023-03-06T19:19:37.176Z,73.01
2023-03-06T19:22:04.897Z,73.00
2023-03-06T19:24:32.656Z,73.12
2023-03-06T19:27:00.427Z,72.93
2023-03-06T19:29:28.701Z,72.70
2023-03-06T19:31:57.524Z,72.88
2023-03-06T19:34:25.352Z,72.40
2023-03-06T19:36:53.331Z,72.40
2023-03-06T19:39:20.983Z,72.38
2023-03-06T19:41:48.849Z,72.35
2023-03-06T19:44:16.630Z,71.87
2023-03-06T19:46:44.378Z,72.07
2023-03-06T19:49:13.883Z,72.12
2023-03-06T19:51:41.655Z,72.10
2023-03-06T19:54:09.307Z,72.31
2023-03-06T19:56:37.073Z,72.30
2023-03-06T19:59:04.734Z,72.33
2023-03-06T20:01:34.448Z,72.18
2023-03-06T20:04:03.422Z,72.00
2023-03-06T20:06:31.615Z,72.18
2023-03-06T20:08:59.382Z,72.17
2023-03-06T20:11:27.152Z,72.16
2023-03-06T20:13:54.899Z,71.88
2023-03-06T20:16:22.659Z,71.66
2023-03-06T20:18:50.421Z,71.73
2023-03-06T20:21:18.082Z,71.88
2023-03-06T20:23:45.739Z,71.88
2023-03-06T20:26:13.716Z,71.68
2023-03-06T20:28:41.473Z,71.33
2023-03-06T20:31:09.253Z,71.59
2023-03-06T20:33:37.000Z,71.55
2023-03-06T20:36:04.683Z,71.58
2023-03-06T20:38:32.423Z,71.48
2023-03-06T20:41:00.105Z,70.96
2023-03-06T20:43:27.746Z,71.04
2023-03-06T20:45:55.410Z,71.04
2023-03-06T20:48:23.073Z,71.01
2023-03-06T20:50:50.735Z,70.90
2023-03-06T20:53:18.400Z,71.03
2023-03-06T20:55:48.486Z,70.93
2023-03-06T20:58:17.715Z,70.81
2023-03-06T21:00:45.378Z,71.31
2023-03-06T21:03:13.062Z,70.97
2023-03-06T21:05:40.817Z,71.38
2023-03-06T21:08:08.462Z,71.34
2023-03-06T21:10:36.331Z,71.19
2023-03-06T21:13:03.981Z,70.92
2023-03-06T21:15:31.757Z,70.41
2023-03-06T21:17:59.417Z,70.44
2023-03-06T21:20:27.183Z,70.63
2023-03-06T21:22:56.484Z,70.99
2023-03-06T21:25:24.247Z,71.39
2023-03-06T21:27:51.949Z,71.72
2023-03-06T21:30:19.674Z,71.46
2023-03-06T21:32:47.335Z,71.78
2023-03-06T21:35:15.100Z,71.97
2023-03-06T21:37:42.771Z,72.03
2023-03-06T21:40:10.525Z,72.24
2023-03-06T21:42:38.290Z,72.45
2023-03-06T21:45:05.992Z,72.28
2023-03-06T21:47:38.726Z,72.27
2023-03-06T21:50:06.603Z,72.46
2023-03-06T21:52:34.369Z,72.60
2023-03-06T21:55:02.126Z,72.60
2023-03-06T21:57:29.796Z,72.69
2023-03-06T21:59:57.558Z,72.64
2023-03-06T22:02:25.214Z,72.83
2023-03-06T22:04:53.596Z,72.68
2023-03-06T22:07:21.458Z,72.43
2023-03-06T22:09:49.223Z,72.48
2023-03-06T22:12:16.889Z,72.18
2023-03-06T22:14:44.651Z,72.66
2023-03-06T22:17:12.411Z,72.66
2023-03-06T22:19:40.072Z,72.68
2023-03-06T22:22:10.392Z,72.72
2023-03-06T22:24:38.471Z,72.63
2023-03-06T22:27:06.231Z,72.29
2023-03-06T22:29:33.891Z,72.23
2023-03-06T22:32:01.689Z,72.27
2023-03-06T22:34:29.624Z,72.01
2023-03-06T22:36:57.385Z,71.86
2023-03-06T22:39:25.149Z,71.78
2023-03-06T22:41:52.914Z,71.81
2023-03-06T22:44:20.680Z,71.84
2023-03-06T22:46:48.645Z,71.96
2023-03-06T22:49:17.228Z,72.26
2023-03-06T22:51:44.892Z,71.51
2023-03-06T22:54:12.651Z,71.39
2023-03-06T22:56:40.410Z,71.56
2023-03-06T22:59:08.025Z,71.44
2023-03-06T23:01:35.808Z,71.53
2023-03-06T23:04:03.789Z,71.31
2023-03-06T23:06:31.780Z,71.08
2023-03-06T23:08:59.752Z,71.07
2023-03-06T23:11:28.332Z,71.17
2023-03-06T23:13:55.996Z,70.87
2023-03-06T23:16:23.668Z,71.21
2023-03-06T23:18:51.423Z,70.98
2023-03-06T23:21:19.186Z,71.35
2023-03-06T23:23:46.952Z,70.98
2023-03-06T23:26:14.613Z,71.11
2023-03-06T23:28:42.274Z,71.02
2023-03-06T23:31:09.994Z,71.27
2023-03-06T23:33:39.028Z,71.22
2023-03-06T23:36:06.899Z,71.26
2023-03-06T23:38:34.558Z,71.33
2023-03-06T23:41:02.323Z,70.96
2023-03-06T23:43:30.087Z,70.77
2023-03-06T23:45:57.792Z,70.98
2023-03-06T23:48:25.616Z,71.03
2023-03-06T23:50:53.284Z,71.18
2023-03-06T23:53:21.041Z,71.18
2023-03-06T23:55:49.229Z,70.96
2023-03-06T23:58:17.020Z,70.80
